| time (UTC) | temp C | wind direction | speed KPH | gust KPH | rain 1hr cm | rain 24hr cm | rain mn cm | humidity % | barometer mb |
| 20260504215506 | 22 | 267 | 11.3 | 29.0 | 0.00 | 0.03 | 0.00 | 52 | 1006.6 |
| 20260504215004 | 22 | 221 | 14.5 | 27.4 | 0.00 | 0.03 | 0.00 | 52 | 1006.7 |
| 20260504214510 | 22 | 237 | 14.5 | 27.4 | 0.00 | 0.03 | 0.00 | 54 | 1006.7 |
| 20260504214005 | 21 | 217 | 14.5 | 25.7 | 0.00 | 0.03 | 0.00 | 55 | 1006.6 |
| 20260504213505 | 21 | 206 | 16.1 | 27.4 | 0.00 | 0.03 | 0.00 | 55 | 1006.6 |
| 20260504213007 | 21 | 221 | 14.5 | 32.2 | 0.00 | 0.03 | 0.00 | 56 | 1006.6 |
| 20260504212507 | 21 | 174 | 17.7 | 40.2 | 0.00 | 0.03 | 0.00 | 55 | 1006.6 |
| 20260504212007 | 21 | 141 | 16.1 | 40.2 | 0.00 | 0.03 | 0.00 | 55 | 1006.6 |
| 20260504211503 | 21 | 227 | 17.7 | 27.4 | 0.00 | 0.03 | 0.00 | 55 | 1006.6 |
| 20260504211003 | 21 | 167 | 19.3 | 27.4 | 0.00 | 0.03 | 0.00 | 55 | 1006.5 |
| 20260504210504 | 21 | 247 | 17.7 | 32.2 | 0.00 | 0.03 | 0.00 | 55 | 1006.3 |
| 20260504210015 | 21 | 191 | 16.1 | 32.2 | 0.00 | 0.03 | 0.00 | 56 | 1006.4 |
| 20260504205506 | 21 | 341 | 20.9 | 32.2 | 0.00 | 0.03 | 0.00 | 55 | 1006.9 |
| 20260504205005 | 21 | 233 | 16.1 | 30.6 | 0.00 | 0.03 | 0.00 | 55 | 1007.1 |
| 20260504204509 | 21 | 260 | 14.5 | 32.2 | 0.00 | 0.03 | 0.00 | 55 | 1007.2 |
| 20260504204006 | 21 | 268 | 19.3 | 37.0 | 0.00 | 0.03 | 0.00 | 54 | 1007.4 |
| 20260504203505 | 21 | 247 | 24.1 | 41.8 | 0.00 | 0.03 | 0.00 | 54 | 1007.6 |
| 20260504203012 | 21 | 257 | 22.5 | 41.8 | 0.00 | 0.03 | 0.00 | 53 | 1007.6 |
| 20260504202506 | 21 | 245 | 22.5 | 35.4 | 0.00 | 0.03 | 0.00 | 55 | 1007.3 |
| 20260504202006 | 21 | 247 | 25.7 | 35.4 | 0.00 | 0.03 | 0.00 | 54 | 1007.3 |
| 20260504201511 | 21 | 241 | 20.9 | 27.4 | 0.00 | 0.03 | 0.00 | 53 | 1007.2 |
| 20260504201006 | 21 | 202 | 14.5 | 25.7 | 0.00 | 0.03 | 0.00 | 57 | 1007.4 |
| 20260504200507 | 20 | 198 | 14.5 | 25.7 | 0.00 | 0.03 | 0.00 | 58 | 1007.3 |
| 20260504200004 | 20 | 243 | 14.5 | 27.4 | 0.00 | 0.03 | 0.00 | 58 | 1007.3 |
| 20260504195504 | 20 | 163 | 17.7 | 27.4 | 0.00 | 0.03 | 0.00 | 58 | 1007.5 |
| 20260504195004 | 20 | 207 | 16.1 | 33.8 | 0.00 | 0.03 | 0.00 | 58 | 1007.6 |
| 20260504194527 | 20 | 228 | 17.7 | 38.6 | 0.00 | 0.03 | 0.00 | 58 | 1007.8 |
| 20260504194005 | 20 | 275 | 20.9 | 38.6 | 0.00 | 0.03 | 0.00 | 57 | 1007.6 |
| 20260504193508 | 20 | 214 | 25.7 | 43.5 | 0.00 | 0.03 | 0.00 | 58 | 1007.7 |
| 20260504193010 | 21 | 218 | 20.9 | 43.5 | 0.00 | 0.03 | 0.00 | 58 | 1007.9 |
| 20260504192505 | 20 | 203 | 16.1 | 43.5 | 0.00 | 0.03 | 0.00 | 60 | 1008.1 |
| 20260504192009 | 20 | 235 | 20.9 | 43.5 | 0.00 | 0.03 | 0.00 | 59 | 1008.4 |
| 20260504191513 | 21 | 251 | 24.1 | 35.4 | 0.00 | 0.03 | 0.00 | 56 | 1008.4 |
| 20260504191007 | 21 | 227 | 19.3 | 40.2 | 0.00 | 0.03 | 0.00 | 55 | 1008.3 |
| 20260504190508 | 21 | 238 | 19.3 | 45.1 | 0.00 | 0.03 | 0.00 | 57 | 1008.2 |
| 20260504190014 | 21 | 214 | 24.1 | 45.1 | 0.00 | 0.03 | 0.00 | 55 | 1008.3 |
| 20260504185507 | 21 | 234 | 20.9 | 37.0 | 0.00 | 0.03 | 0.00 | 56 | 1008.4 |
| 20260504185004 | 21 | 224 | 20.9 | 37.0 | 0.00 | 0.03 | 0.00 | 54 | 1008.0 |
| 20260504184515 | 21 | 281 | 14.5 | 33.8 | 0.00 | 0.03 | 0.00 | 55 | 1008.0 |
| 20260504184002 | 21 | 255 | 24.1 | 33.8 | 0.00 | 0.03 | 0.00 | 55 | 1008.2 |
| 20260504183502 | 21 | 264 | 22.5 | 30.6 | 0.00 | 0.03 | 0.00 | 54 | 1008.1 |
| 20260504183008 | 21 | 209 | 17.7 | 30.6 | 0.00 | 0.03 | 0.00 | 54 | 1008.0 |
| 20260504182503 | 21 | 155 | 22.5 | 32.2 | 0.00 | 0.03 | 0.00 | 54 | 1008.0 |
| 20260504182008 | 21 | 210 | 19.3 | 32.2 | 0.00 | 0.03 | 0.00 | 53 | 1007.8 |
| 20260504181513 | 22 | 222 | 19.3 | 32.2 | 0.00 | 0.03 | 0.00 | 53 | 1007.7 |
| 20260504181008 | 22 | 224 | 14.5 | 38.6 | 0.00 | 0.03 | 0.00 | 53 | 1007.8 |
| 20260504180506 | 21 | 225 | 22.5 | 38.6 | 0.00 | 0.03 | 0.00 | 52 | 1007.8 |
| 20260504180018 | 21 | 239 | 25.7 | 38.6 | 0.00 | 0.03 | 0.00 | 52 | 1007.8 |
| 20260504175508 | 21 | 222 | 22.5 | 40.2 | 0.00 | 0.03 | 0.00 | 52 | 1007.7 |
| 20260504175012 | 22 | 224 | 24.1 | 40.2 | 0.00 | 0.03 | 0.00 | 51 | 1007.8 |
| 20260504174516 | 21 | 264 | 16.1 | 37.0 | 0.00 | 0.03 | 0.00 | 52 | 1007.6 |
| 20260504174010 | 21 | 241 | 24.1 | 37.0 | 0.00 | 0.03 | 0.00 | 51 | 1007.7 |
| 20260504173506 | 21 | 244 | 19.3 | 37.0 | 0.00 | 0.03 | 0.00 | 51 | 1007.7 |
| 20260504173018 | 22 | 251 | 19.3 | 33.8 | 0.00 | 0.03 | 0.00 | 51 | 1007.8 |
| 20260504172504 | 21 | 238 | 14.5 | 33.8 | 0.00 | 0.03 | 0.00 | 52 | 1007.7 |
| 20260504172008 | 22 | 212 | 17.7 | 33.8 | 0.00 | 0.03 | 0.00 | 51 | 1007.8 |
| 20260504171517 | 21 | 252 | 19.3 | 33.8 | 0.00 | 0.03 | 0.00 | 54 | 1007.9 |
| 20260504171010 | 21 | 220 | 16.1 | 29.0 | 0.00 | 0.03 | 0.00 | 53 | 1007.9 |
| 20260504170508 | 21 | 162 | 16.1 | 29.0 | 0.00 | 0.03 | 0.00 | 54 | 1007.9 |
| 20260504151010 | 17 | 198 | 16.1 | 30.6 | 0.00 | 0.03 | 0.00 | 61 | 1008.9 |
| 20260504150504 | 17 | 226 | 12.9 | 24.1 | 0.00 | 0.03 | 0.00 | 62 | 1008.9 |
| 20260504141004 | 16 | 194 | 12.9 | 22.5 | 0.00 | 0.03 | 0.00 | 65 | 1009.2 |
| 20260504140504 | 15 | 152 | 14.5 | 22.5 | 0.00 | 0.03 | 0.00 | 64 | 1009.2 |
| 20260504130503 | 13 | 255 | 11.3 | 19.3 | 0.00 | 0.03 | 0.00 | 67 | 1009.6 |
| 20260504110507 | 10 | 194 | 14.5 | 20.9 | 0.00 | 0.03 | 0.00 | 69 | 1009.3 |
| 20260504100506 | 10 | 138 | 4.8 | 12.9 | 0.00 | 0.03 | 0.00 | 69 | 1009.8 |
| 20260504081527 | 10 | 186 | 9.7 | 14.5 | 0.00 | 0.03 | 0.00 | 67 | 1010.6 |
| 20260504081013 | 10 | 176 | 8.0 | 14.5 | 0.00 | 0.03 | 0.00 | 67 | 1010.7 |
| 20260504080509 | 10 | 172 | 8.0 | 16.1 | 0.00 | 0.03 | 0.00 | 67 | 1010.7 |
| 20260504050506 | 11 | 220 | 11.3 | 24.1 | 0.00 | 0.03 | 0.00 | 59 | 1012.1 |
| 20260504050006 | 12 | 155 | 11.3 | 24.1 | 0.00 | 0.03 | 0.00 | 59 | 1012.1 |
| 20260504045502 | 12 | 193 | 9.7 | 20.9 | 0.00 | 0.03 | 0.00 | 59 | 1012.1 |
| 20260504045002 | 11 | 175 | 11.3 | 20.9 | 0.00 | 0.03 | 0.00 | 59 | 1012.2 |
| 20260504044513 | 12 | 162 | 11.3 | 20.9 | 0.00 | 0.03 | 0.00 | 59 | 1012.2 |
| 20260504044004 | 12 | 207 | 12.9 | 20.9 | 0.00 | 0.03 | 0.00 | 59 | 1012.3 |
| 20260504043504 | 11 | 210 | 11.3 | 20.9 | 0.00 | 0.03 | 0.00 | 59 | 1012.3 |
| 20260504043012 | 11 | 181 | 11.3 | 19.3 | 0.00 | 0.03 | 0.00 | 60 | 1012.4 |
| 20260504042505 | 11 | 201 | 8.0 | 19.3 | 0.00 | 0.03 | 0.00 | 60 | 1012.4 |
| 20260504042008 | 11 | 188 | 8.0 | 19.3 | 0.00 | 0.03 | 0.00 | 61 | 1012.5 |
| 20260504041521 | 11 | 174 | 8.0 | 12.9 | 0.00 | 0.03 | 0.00 | 61 | 1012.5 |
| 20260504041007 | 11 | 224 | 4.8 | 11.3 | 0.00 | 0.03 | 0.00 | 62 | 1012.6 |
| 20260504040509 | 11 | 169 | 4.8 | 11.3 | 0.00 | 0.03 | 0.00 | 64 | 1012.7 |
| 20260504040026 | 11 | 136 | 6.4 | 11.3 | 0.00 | 0.03 | 0.00 | 64 | 1012.7 |
| 20260504035506 | 11 | 131 | 6.4 | 11.3 | 0.00 | 0.03 | 0.03 | 64 | 1012.7 |
| 20260504035007 | 11 | 131 | 6.4 | 11.3 | 0.00 | 0.03 | 0.03 | 65 | 1012.8 |
| 20260504034504 | 11 | 124 | 8.0 | 11.3 | 0.00 | 0.03 | 0.03 | 66 | 1012.8 |
| 20260504034001 | 11 | 137 | 6.4 | 11.3 | 0.00 | 0.03 | 0.03 | 65 | 1012.8 |
| 20260504033502 | 11 | 137 | 8.0 | 12.9 | 0.00 | 0.03 | 0.03 | 66 | 1012.9 |
| 20260504033012 | 11 | 149 | 8.0 | 12.9 | 0.00 | 0.03 | 0.03 | 66 | 1012.9 |
| 20260504032507 | 11 | 147 | 6.4 | 12.9 | 0.00 | 0.03 | 0.03 | 68 | 1013.0 |
| 20260504032004 | 11 | 103 | 4.8 | 12.9 | 0.00 | 0.03 | 0.03 | 68 | 1013.1 |
| 20260504031515 | 10 | 134 | 6.4 | 12.9 | 0.00 | 0.03 | 0.03 | 69 | 1013.1 |
| 20260504031008 | 10 | 145 | 6.4 | 12.9 | 0.00 | 0.03 | 0.03 | 70 | 1013.1 |
| 20260504030509 | 10 | 121 | 8.0 | 11.3 | 0.00 | 0.03 | 0.03 | 70 | 1013.2 |
| 20260504030019 | 10 | 138 | 6.4 | 11.3 | 0.00 | 0.03 | 0.03 | 71 | 1013.2 |
| 20260504025512 | 10 | 125 | 4.8 | 9.7 | 0.00 | 0.03 | 0.03 | 72 | 1013.2 |
| 20260504025008 | 10 | 120 | 4.8 | 11.3 | 0.00 | 0.03 | 0.03 | 74 | 1013.3 |
| 20260504024524 | 10 | 146 | 6.4 | 11.3 | 0.00 | 0.03 | 0.03 | 73 | 1013.4 |
| 20260504024009 | 10 | 103 | 4.8 | 9.7 | 0.00 | 0.03 | 0.03 | 74 | 1013.4 |
| 20260504023506 | 10 | 123 | 4.8 | 11.3 | 0.00 | 0.03 | 0.03 | 74 | 1013.4 |
| 20260504023008 | 10 | 112 | 6.4 | 12.9 | 0.00 | 0.03 | 0.03 | 74 | 1013.4 |
| 20260504022502 | 10 | 113 | 6.4 | 12.9 | 0.00 | 0.03 | 0.03 | 74 | 1013.4 |
| 20260504022004 | 10 | 139 | 8.0 | 12.9 | 0.00 | 0.03 | 0.03 | 74 | 1013.4 |
| 20260504021515 | 10 | 123 | 6.4 | 11.3 | 0.00 | 0.03 | 0.03 | 74 | 1013.4 |
| 20260504021007 | 10 | 113 | 6.4 | 11.3 | 0.00 | 0.03 | 0.03 | 75 | 1013.4 |
| 20260504020505 | 10 | 136 | 4.8 | 11.3 | 0.00 | 0.03 | 0.03 | 76 | 1013.5 |
| 20260504020019 | 10 | 117 | 4.8 | 12.9 | 0.00 | 0.03 | 0.03 | 75 | 1013.5 |
| 20260504015510 | 10 | 86 | 6.4 | 12.9 | 0.00 | 0.03 | 0.03 | 76 | 1013.5 |
| 20260504015009 | 10 | 126 | 6.4 | 12.9 | 0.00 | 0.03 | 0.03 | 76 | 1013.4 |
| 20260504014531 | 10 | 120 | 6.4 | 12.9 | 0.00 | 0.03 | 0.03 | 76 | 1013.4 |
| 20260504014009 | 9 | 118 | 8.0 | 12.9 | 0.00 | 0.03 | 0.03 | 76 | 1013.5 |
| 20260504013510 | 9 | 129 | 6.4 | 11.3 | 0.00 | 0.03 | 0.03 | 76 | 1013.5 |
| 20260504013026 | 9 | 114 | 4.8 | 8.0 | 0.00 | 0.03 | 0.03 | 77 | 1013.5 |
| 20260504012506 | 9 | 122 | 6.4 | 11.3 | 0.00 | 0.03 | 0.03 | 76 | 1013.5 |
| 20260504012007 | 9 | 118 | 4.8 | 11.3 | 0.00 | 0.03 | 0.03 | 76 | 1013.5 |
| 20260504011526 | 9 | 103 | 6.4 | 11.3 | 0.00 | 0.03 | 0.03 | 76 | 1013.5 |
| 20260504011002 | 9 | 136 | 4.8 | 11.3 | 0.00 | 0.03 | 0.03 | 77 | 1013.6 |
| 20260504010506 | 9 | 102 | 4.8 | 11.3 | 0.00 | 0.03 | 0.03 | 78 | 1013.6 |
| 20260504010012 | 9 | 118 | 3.2 | 9.7 | 0.00 | 0.03 | 0.03 | 79 | 1013.6 |
| 20260504005505 | 9 | 105 | 4.8 | 9.7 | 0.00 | 0.03 | 0.03 | 78 | 1013.6 |
| 20260504005011 | 9 | 110 | 4.8 | 9.7 | 0.00 | 0.03 | 0.03 | 78 | 1013.6 |
| 20260504004521 | 9 | 110 | 4.8 | 9.7 | 0.00 | 0.03 | 0.03 | 78 | 1013.5 |
| 20260504004010 | 9 | 101 | 4.8 | 8.0 | 0.00 | 0.03 | 0.03 | 79 | 1013.5 |
| 20260504003509 | 9 | 100 | 4.8 | 8.0 | 0.00 | 0.03 | 0.03 | 79 | 1013.5 |
| 20260504003030 | 9 | 116 | 1.6 | 4.8 | 0.00 | 0.03 | 0.03 | 78 | 1013.5 |
| 20260504002509 | 9 | 114 | 0.0 | 1.6 | 0.00 | 0.03 | 0.03 | 78 | 1013.6 |
| 20260504002011 | 9 | 110 | 0.0 | 4.8 | 0.00 | 0.03 | 0.03 | 78 | 1013.7 |
| 20260504001532 | 9 | 112 | 0.0 | 8.0 | 0.00 | 0.03 | 0.03 | 77 | 1013.6 |
| 20260504001007 | 9 | 116 | 3.2 | 8.0 | 0.00 | 0.03 | 0.03 | 77 | 1013.6 |
| 20260504000507 | 9 | 115 | 1.6 | 4.8 | 0.00 | 0.03 | 0.03 | 77 | 1013.6 |
| 20260504000028 | 9 | 124 | 0.0 | 6.4 | 0.00 | 0.03 | 0.03 | 77 | 1013.6 |
| 20260503235509 | 9 | 121 | 0.0 | 6.4 | 0.00 | 0.03 | 0.03 | 78 | 1013.5 |
| 20260503235008 | 9 | 101 | 3.2 | 8.0 | 0.00 | 0.03 | 0.03 | 78 | 1013.5 |
| 20260503234517 | 9 | 105 | 4.8 | 9.7 | 0.00 | 0.03 | 0.03 | 79 | 1013.4 |
| 20260503234007 | 9 | 98 | 3.2 | 9.7 | 0.00 | 0.03 | 0.03 | 78 | 1013.4 |
| 20260503233503 | 9 | 115 | 4.8 | 11.3 | 0.00 | 0.03 | 0.03 | 78 | 1013.4 |
| 20260503233004 | 9 | 104 | 6.4 | 11.3 | 0.00 | 0.03 | 0.03 | 78 | 1013.5 |
| 20260503232504 | 9 | 98 | 4.8 | 11.3 | 0.00 | 0.03 | 0.03 | 77 | 1013.7 |
| 20260503232003 | 9 | 142 | 4.8 | 9.7 | 0.00 | 0.03 | 0.03 | 78 | 1013.7 |
| 20260503231502 | 9 | 124 | 4.8 | 9.7 | 0.00 | 0.03 | 0.03 | 79 | 1013.8 |
| 20260503231004 | 9 | 84 | 4.8 | 9.7 | 0.00 | 0.03 | 0.03 | 80 | 1013.9 |
| 20260503230504 | 9 | 120 | 3.2 | 8.0 | 0.03 | 0.03 | 0.03 | 80 | 1013.9 |
| 20260503230008 | 9 | 127 | 4.8 | 8.0 | 0.03 | 0.03 | 0.03 | 80 | 1014.0 |
| 20260503225508 | 9 | 106 | 3.2 | 8.0 | 0.03 | 0.03 | 0.03 | 80 | 1014.3 |
| 20260503225009 | 9 | 102 | 3.2 | 8.0 | 0.03 | 0.03 | 0.03 | 79 | 1014.3 |
| 20260503224516 | 9 | 117 | 0.0 | 4.8 | 0.03 | 0.03 | 0.03 | 78 | 1014.4 |
| 20260503224004 | 9 | 55 | 0.0 | 4.8 | 0.03 | 0.03 | 0.03 | 78 | 1014.6 |
| 20260503223505 | 9 | 129 | 3.2 | 4.8 | 0.03 | 0.03 | 0.03 | 77 | 1014.8 |
| 20260503223018 | 9 | 80 | 0.0 | 4.8 | 0.03 | 0.03 | 0.03 | 78 | 1015.1 |
| 20260503222508 | 9 | 66 | 3.2 | 4.8 | 0.03 | 0.03 | 0.03 | 76 | 1015.2 |
| 20260503222006 | 9 | 75 | 0.0 | 3.2 | 0.03 | 0.03 | 0.03 | 76 | 1015.2 |
| 20260503221502 | 9 | 84 | 0.0 | 3.2 | 0.03 | 0.03 | 0.03 | 76 | 1015.2 |
| 20260503221003 | 9 | 106 | 0.0 | 3.2 | 0.03 | 0.03 | 0.03 | 75 | 1015.4 |
| 20260503220504 | 9 | 311 | 0.0 | 6.4 | 0.00 | 0.00 | 0.00 | 73 | 1015.6 |
| 20260503220008 | 10 | 312 | 3.2 | 11.3 | 0.00 | 0.00 | 0.00 | 73 | 1015.8 |